createdAt,value
2019-03-10T00:00:37.166Z,2.00
2019-03-10T00:03:08.144Z,1.70
2019-03-10T00:05:38.934Z,1.67
2019-03-10T00:08:09.809Z,1.37
2019-03-10T00:10:40.498Z,1.30
2019-03-10T00:13:11.178Z,1.20
2019-03-10T00:15:42.055Z,1.30
2019-03-10T00:18:12.954Z,1.90
2019-03-10T00:20:44.149Z,1.10
2019-03-10T00:23:14.961Z,1.50
2019-03-10T00:25:45.867Z,1.00
2019-03-10T00:28:16.701Z,1.30
2019-03-10T00:30:47.544Z,1.10
2019-03-10T00:33:18.343Z,1.83
2019-03-10T00:35:49.149Z,1.50
2019-03-10T00:38:20.010Z,1.90
2019-03-10T00:41:37.212Z,1.73
2019-03-10T00:44:47.159Z,1.40
2019-03-10T00:48:01.337Z,1.87
2019-03-10T00:51:06.632Z,1.80
2019-03-10T00:53:37.320Z,1.50
2019-03-10T00:56:08.222Z,1.80
2019-03-10T00:58:39.300Z,1.83
2019-03-10T01:01:10.211Z,1.60
2019-03-10T01:03:41.790Z,1.60
2019-03-10T01:06:12.595Z,1.90
2019-03-10T01:08:43.466Z,1.40
2019-03-10T01:11:14.317Z,1.57
2019-03-10T01:13:45.205Z,1.30
2019-03-10T01:16:17.739Z,1.53
2019-03-10T01:18:49.343Z,1.77
2019-03-10T01:21:21.144Z,1.43
2019-03-10T01:23:52.045Z,0.93
2019-03-10T01:26:22.935Z,1.50
2019-03-10T01:28:53.823Z,1.10
2019-03-10T01:31:32.630Z,1.10
2019-03-10T01:34:50.065Z,1.40
2019-03-10T01:37:20.868Z,0.87
2019-03-10T01:39:51.754Z,1.17
2019-03-10T01:42:22.466Z,1.00
2019-03-10T01:44:53.401Z,0.90
2019-03-10T01:47:24.337Z,1.10
2019-03-10T01:49:55.117Z,1.30
2019-03-10T01:52:25.888Z,1.20
2019-03-10T01:54:56.454Z,1.07
2019-03-10T01:57:27.244Z,0.80
2019-03-10T01:59:59.069Z,1.20
2019-03-10T02:02:29.835Z,1.27
2019-03-10T02:05:00.518Z,1.20
2019-03-10T02:07:31.312Z,1.33
2019-03-10T02:10:02.578Z,1.10
2019-03-10T02:12:34.210Z,2.03
2019-03-10T02:15:05.294Z,1.63
2019-03-10T02:17:36.322Z,1.97
2019-03-10T02:20:09.630Z,1.07
2019-03-10T02:22:40.350Z,1.33
2019-03-10T02:25:11.121Z,1.83
2019-03-10T02:27:41.918Z,1.80
2019-03-10T02:30:15.435Z,1.50
2019-03-10T02:32:46.161Z,1.40
2019-03-10T02:35:17.819Z,1.30
2019-03-10T02:37:48.612Z,1.10
2019-03-10T02:40:19.423Z,0.97
2019-03-10T02:42:50.211Z,1.20
2019-03-10T02:45:20.970Z,1.40
2019-03-10T02:47:52.716Z,1.67
2019-03-10T02:50:23.677Z,1.37
2019-03-10T02:52:54.483Z,1.00
2019-03-10T02:55:25.256Z,1.30
2019-03-10T02:57:55.952Z,1.53
2019-03-10T03:00:26.797Z,0.83
2019-03-10T03:02:57.383Z,1.10
2019-03-10T03:05:28.251Z,1.47
2019-03-10T03:07:59.053Z,1.13
2019-03-10T03:10:29.855Z,1.20
2019-03-10T03:13:00.668Z,1.40
2019-03-10T03:15:31.548Z,1.40
2019-03-10T03:18:02.225Z,1.30
2019-03-10T03:20:33.176Z,1.10
2019-03-10T03:23:03.972Z,0.80
2019-03-10T03:25:34.951Z,1.13
2019-03-10T03:28:05.807Z,1.07
2019-03-10T03:30:36.711Z,0.90
2019-03-10T03:33:07.700Z,0.90
2019-03-10T03:36:05.363Z,0.80
2019-03-10T03:38:38.443Z,0.70
2019-03-10T03:41:12.223Z,0.80
2019-03-10T03:43:42.824Z,1.00
2019-03-10T03:46:13.673Z,1.03
2019-03-10T03:48:44.322Z,1.43
2019-03-10T03:51:15.194Z,1.10
2019-03-10T03:53:45.886Z,1.00
2019-03-10T03:56:16.768Z,0.97
2019-03-10T03:58:47.567Z,0.90
2019-03-10T04:01:21.895Z,0.70
2019-03-10T04:03:52.710Z,0.90
2019-03-10T04:06:23.669Z,0.70
2019-03-10T04:08:54.593Z,0.70
2019-03-10T04:11:25.264Z,0.90
2019-03-10T04:13:56.061Z,0.70
2019-03-10T04:16:26.734Z,0.50
2019-03-10T04:18:57.395Z,0.60
2019-03-10T04:21:28.206Z,1.03
2019-03-10T04:23:58.990Z,0.60
2019-03-10T04:26:30.087Z,0.40
2019-03-10T04:29:00.775Z,0.70
2019-03-10T04:31:31.819Z,0.60
2019-03-10T04:34:02.752Z,0.77
2019-03-10T04:36:33.526Z,0.73
2019-03-10T04:39:05.604Z,0.60
2019-03-10T04:41:36.641Z,0.60
2019-03-10T04:44:07.423Z,0.70
2019-03-10T04:46:38.271Z,0.50
2019-03-10T04:49:09.162Z,0.50
2019-03-10T04:51:39.839Z,0.60
2019-03-10T04:54:10.539Z,0.47
2019-03-10T04:57:03.229Z,0.60
2019-03-10T04:59:33.942Z,0.70
2019-03-10T05:02:04.943Z,0.43
2019-03-10T05:04:35.724Z,0.90
2019-03-10T05:07:07.375Z,0.80
2019-03-10T05:09:38.010Z,0.80
2019-03-10T05:12:09.143Z,0.77
2019-03-10T05:14:40.870Z,0.73
2019-03-10T05:17:11.859Z,0.50
2019-03-10T05:19:42.583Z,0.60
2019-03-10T05:22:13.440Z,0.70
2019-03-10T05:24:44.255Z,0.60
2019-03-10T05:27:15.011Z,0.73
2019-03-10T05:29:45.896Z,1.20
2019-03-10T05:32:17.003Z,0.80
2019-03-10T05:34:48.728Z,1.03
2019-03-10T05:37:20.413Z,1.13
2019-03-10T05:39:51.115Z,0.70
2019-03-10T05:42:21.884Z,1.00
2019-03-10T05:44:52.738Z,0.60
2019-03-10T05:47:23.457Z,0.77
2019-03-10T05:49:54.152Z,0.70
2019-03-10T05:52:25.103Z,1.03
2019-03-10T05:54:55.992Z,0.60
2019-03-10T05:57:26.878Z,1.20
2019-03-10T05:59:57.611Z,0.87
2019-03-10T06:02:28.339Z,0.70
2019-03-10T06:04:59.036Z,0.70
2019-03-10T06:07:29.711Z,0.70
2019-03-10T06:10:00.399Z,0.60
2019-03-10T06:12:32.302Z,0.70
2019-03-10T06:15:02.992Z,0.50
2019-03-10T06:17:33.934Z,0.90
2019-03-10T06:20:04.598Z,0.60
2019-03-10T06:22:35.392Z,0.60
2019-03-10T06:25:06.275Z,0.60
2019-03-10T06:27:36.949Z,0.70
2019-03-10T06:30:08.151Z,0.70
2019-03-10T06:32:38.941Z,0.87
2019-03-10T06:35:09.887Z,0.70
2019-03-10T06:37:40.675Z,0.43
2019-03-10T06:40:11.665Z,0.50
2019-03-10T06:42:42.568Z,0.80
2019-03-10T06:45:13.330Z,0.50
2019-03-10T06:47:44.421Z,0.50
2019-03-10T06:50:15.417Z,0.67
2019-03-10T06:52:46.198Z,0.50
2019-03-10T06:55:17.022Z,0.60
2019-03-10T06:57:47.854Z,0.77
2019-03-10T07:00:18.493Z,0.70
2019-03-10T07:02:49.615Z,0.40
2019-03-10T07:05:20.373Z,0.63
2019-03-10T07:07:51.141Z,0.60
2019-03-10T07:10:22.009Z,0.50
2019-03-10T07:12:52.684Z,0.60
2019-03-10T07:15:23.594Z,0.40
2019-03-10T07:17:54.487Z,0.40
2019-03-10T07:20:25.193Z,0.60
2019-03-10T07:22:56.213Z,0.53
2019-03-10T07:25:26.855Z,0.60
2019-03-10T07:28:24.121Z,0.60
2019-03-10T07:30:59.227Z,0.50
2019-03-10T07:33:35.636Z,0.50
2019-03-10T07:36:31.441Z,0.50
2019-03-10T07:39:33.179Z,0.50
2019-03-10T07:42:21.332Z,0.60
2019-03-10T07:45:17.183Z,0.40
2019-03-10T07:48:12.990Z,0.63
2019-03-10T07:51:02.815Z,0.80
2019-03-10T07:53:55.614Z,0.73
2019-03-10T07:56:44.072Z,0.60
2019-03-10T07:59:33.860Z,0.90
2019-03-10T08:02:23.458Z,0.50
2019-03-10T08:05:25.298Z,0.90
2019-03-10T08:08:23.952Z,0.87
2019-03-10T08:11:16.353Z,0.80
2019-03-10T08:14:12.282Z,0.70
2019-03-10T08:16:55.985Z,0.80
2019-03-10T08:19:45.713Z,0.80
2019-03-10T08:22:38.920Z,0.53
2019-03-10T08:25:37.851Z,0.80
2019-03-10T08:28:30.466Z,0.50
2019-03-10T08:31:23.920Z,0.73
2019-03-10T08:34:06.133Z,0.90
2019-03-10T08:36:45.910Z,1.00
2019-03-10T08:39:44.660Z,0.67
2019-03-10T08:42:30.286Z,0.80
2019-03-10T08:45:28.896Z,0.83
2019-03-10T08:48:21.558Z,0.63
2019-03-10T08:51:00.037Z,0.50
2019-03-10T08:53:55.571Z,0.60
2019-03-10T08:56:34.078Z,0.50
2019-03-10T08:59:23.826Z,0.80
2019-03-10T09:02:12.471Z,1.10
2019-03-10T09:04:50.474Z,0.70
2019-03-10T09:07:39.367Z,0.60
2019-03-10T09:10:30.038Z,0.60
2019-03-10T09:13:22.577Z,0.60
2019-03-10T09:16:06.731Z,1.03
2019-03-10T09:18:59.586Z,0.63
2019-03-10T09:21:50.095Z,0.50
2019-03-10T09:24:39.282Z,0.50
2019-03-10T09:27:28.646Z,0.60
2019-03-10T09:30:34.931Z,0.57
2019-03-10T09:33:30.692Z,0.70
2019-03-10T09:36:23.118Z,0.90
2019-03-10T09:39:12.636Z,0.80
2019-03-10T09:42:05.575Z,0.87
2019-03-10T09:45:01.602Z,0.80
2019-03-10T09:47:43.614Z,0.80
2019-03-10T09:50:31.875Z,0.60
2019-03-10T09:53:22.384Z,0.60
2019-03-10T09:56:15.115Z,1.33
2019-03-10T09:59:13.985Z,0.60
2019-03-10T10:02:12.979Z,0.70
2019-03-10T10:04:59.587Z,0.80
2019-03-10T10:07:52.383Z,0.50
2019-03-10T10:10:44.164Z,1.10
2019-03-10T10:13:27.020Z,0.67
2019-03-10T10:16:34.855Z,0.70
2019-03-10T10:19:25.384Z,0.70
2019-03-10T10:22:18.242Z,0.50
2019-03-10T10:25:09.657Z,1.07
2019-03-10T10:27:59.467Z,0.60
2019-03-10T10:30:47.722Z,1.10
2019-03-10T10:33:24.159Z,0.80
2019-03-10T10:36:13.841Z,0.60
2019-03-10T10:39:03.552Z,0.70
2019-03-10T10:41:50.053Z,0.80
2019-03-10T10:44:28.525Z,0.67
2019-03-10T10:47:14.464Z,0.57
2019-03-10T10:50:16.083Z,0.90
2019-03-10T10:53:03.839Z,0.60
2019-03-10T10:55:40.311Z,0.80
2019-03-10T10:58:36.618Z,0.60
2019-03-10T11:01:26.541Z,0.60
2019-03-10T11:04:16.431Z,0.57
2019-03-10T11:07:06.156Z,0.90
2019-03-10T11:09:55.966Z,0.73
2019-03-10T11:12:51.758Z,0.70
2019-03-10T11:15:32.146Z,0.60
2019-03-10T11:18:16.472Z,0.83
2019-03-10T11:21:09.333Z,0.50
2019-03-10T11:23:54.091Z,0.60
2019-03-10T11:26:46.866Z,0.70
2019-03-10T11:29:50.983Z,1.10
2019-03-10T11:32:31.647Z,0.60
2019-03-10T11:35:08.599Z,0.73
2019-03-10T11:38:10.400Z,0.60
2019-03-10T11:40:52.357Z,0.50
2019-03-10T11:43:27.939Z,0.40
2019-03-10T11:46:25.163Z,0.70
2019-03-10T11:49:12.567Z,0.80
2019-03-10T11:51:53.975Z,0.50
2019-03-10T11:54:32.108Z,0.60
2019-03-10T11:57:11.514Z,0.80
2019-03-10T11:59:56.048Z,0.50
2019-03-10T12:02:48.002Z,0.50
2019-03-10T12:05:24.469Z,0.90
2019-03-10T12:08:23.406Z,0.63
2019-03-10T12:10:54.091Z,0.80
2019-03-10T12:13:24.906Z,0.70
2019-03-10T12:15:55.770Z,0.70
2019-03-10T12:18:26.747Z,0.70
2019-03-10T12:20:57.443Z,0.50
2019-03-10T12:23:28.277Z,0.80
2019-03-10T12:25:59.075Z,0.60
2019-03-10T12:28:29.777Z,0.60
2019-03-10T12:31:00.574Z,0.67
2019-03-10T12:33:31.443Z,0.47
2019-03-10T12:36:02.219Z,0.70
2019-03-10T12:38:33.074Z,1.10
2019-03-10T12:41:03.897Z,0.40
2019-03-10T12:43:34.516Z,0.80
2019-03-10T12:46:05.387Z,0.60
2019-03-10T12:48:36.086Z,0.67
2019-03-10T12:51:19.338Z,0.53
2019-03-10T12:53:49.746Z,0.50
2019-03-10T12:56:20.616Z,0.50
2019-03-10T12:58:51.415Z,0.60
2019-03-10T13:01:22.236Z,0.50
2019-03-10T13:03:58.791Z,0.50
2019-03-10T13:06:25.731Z,0.57
2019-03-10T13:08:56.532Z,0.60
2019-03-10T13:11:27.502Z,0.57
2019-03-10T13:13:58.326Z,0.60
2019-03-10T13:16:29.163Z,0.80
2019-03-10T13:18:59.979Z,0.40
2019-03-10T13:21:30.796Z,0.70
2019-03-10T13:24:01.756Z,0.43
2019-03-10T13:26:32.426Z,0.50
2019-03-10T13:29:03.223Z,0.50
2019-03-10T13:31:34.175Z,0.50
2019-03-10T13:34:04.866Z,1.03
2019-03-10T13:36:35.630Z,0.77
2019-03-10T13:39:08.097Z,0.60
2019-03-10T13:41:40.390Z,0.73
2019-03-10T13:44:11.625Z,0.70
2019-03-10T13:46:43.913Z,1.00
2019-03-10T13:49:14.796Z,0.70
2019-03-10T13:51:45.470Z,0.80
2019-03-10T13:54:16.267Z,1.07
2019-03-10T13:56:47.141Z,1.00
2019-03-10T13:59:17.934Z,1.10
2019-03-10T14:01:49.018Z,0.83
2019-03-10T14:04:19.847Z,0.70
2019-03-10T14:06:52.207Z,0.67
2019-03-10T14:09:23.055Z,1.03
2019-03-10T14:11:53.919Z,0.73
2019-03-10T14:14:24.622Z,1.33
2019-03-10T14:16:55.377Z,1.03
2019-03-10T14:19:26.295Z,0.70
2019-03-10T14:21:57.143Z,1.60
2019-03-10T14:24:27.737Z,1.20
2019-03-10T14:26:58.488Z,1.00
2019-03-10T14:29:29.197Z,0.73
2019-03-10T14:32:00.012Z,1.10
2019-03-10T14:34:32.005Z,0.57
2019-03-10T14:37:02.746Z,0.80
2019-03-10T14:39:33.663Z,1.10
2019-03-10T14:42:04.549Z,0.90
2019-03-10T14:44:36.268Z,0.60
2019-03-10T14:47:07.041Z,0.80
2019-03-10T14:49:37.866Z,1.10
2019-03-10T14:52:08.683Z,1.23
2019-03-10T14:54:39.335Z,1.00
2019-03-10T14:57:10.111Z,0.93
2019-03-10T14:59:40.907Z,1.03
2019-03-10T15:02:11.762Z,0.67
2019-03-10T15:04:42.585Z,1.17
2019-03-10T15:07:13.351Z,1.00
2019-03-10T15:09:44.148Z,1.23
2019-03-10T15:12:14.999Z,0.90
2019-03-10T15:14:45.783Z,0.97
2019-03-10T15:17:16.575Z,1.10
2019-03-10T15:19:47.454Z,1.10
2019-03-10T15:22:18.339Z,0.70
2019-03-10T15:24:49.068Z,1.30
2019-03-10T15:27:23.529Z,1.10
2019-03-10T15:29:52.273Z,1.20
2019-03-10T15:32:23.303Z,0.93
2019-03-10T15:34:54.049Z,1.20
2019-03-10T15:37:25.071Z,0.90
2019-03-10T15:39:55.686Z,1.00
2019-03-10T15:42:26.471Z,0.93
2019-03-10T15:44:57.257Z,0.90
2019-03-10T15:47:28.134Z,1.27
2019-03-10T15:49:59.062Z,1.23
2019-03-10T15:52:30.057Z,0.97
2019-03-10T15:55:00.841Z,1.37
2019-03-10T15:57:31.506Z,0.90
2019-03-10T16:00:02.309Z,1.47
2019-03-10T16:02:34.832Z,1.00
2019-03-10T16:05:06.132Z,1.20
2019-03-10T16:07:37.069Z,1.00
2019-03-10T16:10:08.285Z,1.30
2019-03-10T16:12:39.238Z,1.50
2019-03-10T16:15:12.216Z,0.77
2019-03-10T16:17:43.024Z,1.23
2019-03-10T16:20:14.084Z,1.00
2019-03-10T16:22:44.964Z,1.07
2019-03-10T16:25:15.751Z,0.93
2019-03-10T16:27:46.738Z,0.90
2019-03-10T16:30:18.167Z,0.93
2019-03-10T16:32:50.152Z,1.40
2019-03-10T16:35:22.298Z,1.53
2019-03-10T16:37:53.494Z,5.40
2019-03-10T16:40:24.369Z,11.93
2019-03-10T16:42:55.321Z,8.03
2019-03-10T16:45:26.140Z,3.00
2019-03-10T16:47:57.740Z,1.13
2019-03-10T16:50:30.677Z,1.77
2019-03-10T16:53:02.564Z,1.00
2019-03-10T16:55:33.363Z,1.47
2019-03-10T16:58:04.257Z,1.70
2019-03-10T17:00:35.047Z,4.30
2019-03-10T17:03:05.960Z,3.63
2019-03-10T17:05:36.826Z,2.77
2019-03-10T17:08:07.639Z,1.63
2019-03-10T17:10:38.431Z,1.53
2019-03-10T17:13:09.479Z,1.00
2019-03-10T17:15:40.165Z,0.93
2019-03-10T17:18:11.309Z,1.70
2019-03-10T17:20:42.135Z,1.37
2019-03-10T17:23:13.058Z,2.23
2019-03-10T17:25:43.946Z,2.30
2019-03-10T17:28:14.721Z,1.20
2019-03-10T17:30:45.523Z,1.83
2019-03-10T17:33:16.495Z,1.77
2019-03-10T17:35:47.190Z,2.00
2019-03-10T17:38:17.858Z,1.67
2019-03-10T17:40:48.735Z,1.47
2019-03-10T17:43:19.693Z,1.43
2019-03-10T17:45:50.406Z,1.43
2019-03-10T17:48:21.229Z,2.17
2019-03-10T17:50:52.071Z,2.63
2019-03-10T17:53:22.947Z,2.47
2019-03-10T17:55:53.787Z,2.50
2019-03-10T17:58:24.815Z,2.77
2019-03-10T18:00:55.464Z,3.10
2019-03-10T18:03:26.328Z,1.90
2019-03-10T18:05:57.231Z,1.93
2019-03-10T18:08:28.187Z,2.47
2019-03-10T18:10:58.895Z,3.20
2019-03-10T18:13:29.562Z,1.20
2019-03-10T18:16:00.354Z,1.67
2019-03-10T18:18:31.067Z,3.47
2019-03-10T18:21:01.835Z,1.10
2019-03-10T18:23:32.876Z,1.27
2019-03-10T18:26:03.584Z,2.27
2019-03-10T18:28:34.250Z,4.13
2019-03-10T18:31:05.145Z,2.43
2019-03-10T18:33:35.840Z,2.60
2019-03-10T18:36:06.728Z,1.60
2019-03-10T18:38:37.603Z,3.70
2019-03-10T18:41:08.530Z,2.53
2019-03-10T18:43:39.271Z,1.60
2019-03-10T18:46:10.201Z,9.57
2019-03-10T18:48:41.240Z,4.90
2019-03-10T18:51:11.836Z,9.63
2019-03-10T18:53:42.728Z,2.33
2019-03-10T18:56:13.544Z,0.77
2019-03-10T18:58:44.319Z,1.27
2019-03-10T19:01:16.146Z,0.93
2019-03-10T19:03:47.222Z,1.20
2019-03-10T19:06:18.020Z,1.00
2019-03-10T19:08:48.865Z,0.77
2019-03-10T19:11:19.591Z,0.80
2019-03-10T19:13:50.327Z,1.33
2019-03-10T19:16:21.053Z,0.70
2019-03-10T19:18:51.722Z,2.13
2019-03-10T19:21:22.616Z,1.50
2019-03-10T19:23:53.438Z,1.40
2019-03-10T19:26:24.215Z,1.70
2019-03-10T19:28:54.971Z,0.90
2019-03-10T19:31:25.826Z,0.97
2019-03-10T19:33:56.345Z,1.00
2019-03-10T19:36:27.028Z,0.70
2019-03-10T19:38:57.703Z,0.60
2019-03-10T19:41:28.455Z,1.20
2019-03-10T19:43:59.655Z,0.90
2019-03-10T19:46:30.372Z,1.00
2019-03-10T19:49:01.714Z,0.70
2019-03-10T19:51:32.410Z,0.70
2019-03-10T19:54:03.206Z,1.03
2019-03-10T19:56:33.994Z,1.10
2019-03-10T19:59:05.167Z,1.50
2019-03-10T20:01:36.002Z,1.40
2019-03-10T20:04:06.782Z,1.80
2019-03-10T20:06:37.570Z,4.70
2019-03-10T20:09:10.036Z,1.90
2019-03-10T20:11:41.926Z,1.87
2019-03-10T20:14:12.811Z,1.10
2019-03-10T20:16:43.740Z,1.57
2019-03-10T20:19:14.702Z,0.97
2019-03-10T20:21:45.522Z,1.57
2019-03-10T20:24:16.538Z,0.87
2019-03-10T20:26:47.349Z,1.33
2019-03-10T20:29:18.480Z,1.17
2019-03-10T20:31:49.247Z,1.77
2019-03-10T20:34:20.163Z,1.50
2019-03-10T20:36:52.286Z,1.23
2019-03-10T20:39:23.266Z,1.70
2019-03-10T20:42:04.480Z,1.70
2019-03-10T20:44:26.573Z,1.67
2019-03-10T20:46:57.555Z,1.60
2019-03-10T20:49:28.543Z,1.50
2019-03-10T20:51:59.156Z,1.63
2019-03-10T20:54:30.274Z,1.60
2019-03-10T20:57:01.058Z,1.63
2019-03-10T20:59:31.830Z,1.13
2019-03-10T21:02:02.632Z,1.83
2019-03-10T21:04:33.493Z,1.90
2019-03-10T21:07:04.258Z,1.40
2019-03-10T21:09:34.974Z,1.17
2019-03-10T21:12:05.838Z,1.37
2019-03-10T21:14:36.615Z,2.17
2019-03-10T21:17:07.337Z,1.53
2019-03-10T21:19:38.275Z,1.53
2019-03-10T21:22:08.901Z,1.43
2019-03-10T21:24:39.735Z,1.93
2019-03-10T21:27:10.578Z,1.33
2019-03-10T21:29:41.364Z,1.33
2019-03-10T21:32:12.007Z,2.17
2019-03-10T21:34:42.978Z,1.20
2019-03-10T21:37:13.689Z,1.87
2019-03-10T21:39:44.772Z,1.73
2019-03-10T21:42:15.390Z,2.30
2019-03-10T21:44:46.241Z,1.57
2019-03-10T21:47:17.126Z,1.27
2019-03-10T21:49:47.902Z,2.10
2019-03-10T21:52:19.186Z,2.03
2019-03-10T21:54:50.724Z,2.80
2019-03-10T21:57:21.605Z,1.90
2019-03-10T21:59:52.410Z,1.97
2019-03-10T22:02:23.166Z,1.07
2019-03-10T22:04:53.966Z,1.60
2019-03-10T22:07:24.780Z,1.63
2019-03-10T22:09:55.664Z,2.07
2019-03-10T22:12:26.494Z,1.80
2019-03-10T22:14:57.250Z,1.47
2019-03-10T22:17:28.139Z,1.70
2019-03-10T22:19:58.958Z,1.43
2019-03-10T22:22:30.614Z,1.60
2019-03-10T22:25:12.135Z,1.40
2019-03-10T22:27:34.141Z,1.30
2019-03-10T22:30:05.389Z,2.20
2019-03-10T22:32:36.233Z,1.50
2019-03-10T22:35:07.465Z,1.37
2019-03-10T22:37:38.534Z,1.90
2019-03-10T22:40:10.027Z,1.63
2019-03-10T22:42:40.929Z,1.30
2019-03-10T22:45:12.131Z,1.57
2019-03-10T22:47:43.856Z,2.20
2019-03-10T22:50:15.036Z,2.40
2019-03-10T22:52:45.918Z,2.20
2019-03-10T22:55:17.079Z,2.70
2019-03-10T22:57:47.765Z,1.30
2019-03-10T23:00:20.879Z,1.90
2019-03-10T23:02:53.521Z,1.53
2019-03-10T23:05:24.112Z,1.60
2019-03-10T23:07:54.901Z,1.60
2019-03-10T23:10:25.583Z,1.93
2019-03-10T23:12:56.350Z,2.30
2019-03-10T23:15:27.102Z,1.53
2019-03-10T23:17:57.931Z,1.70
2019-03-10T23:20:28.797Z,1.30
2019-03-10T23:22:59.564Z,1.47
2019-03-10T23:25:30.494Z,0.90
2019-03-10T23:28:01.345Z,2.60
2019-03-10T23:30:34.470Z,1.33
2019-03-10T23:33:04.553Z,1.57
2019-03-10T23:35:35.230Z,1.40
2019-03-10T23:38:06.809Z,2.00
2019-03-10T23:40:37.734Z,7.47
2019-03-10T23:43:08.497Z,1.77
2019-03-10T23:45:39.362Z,1.30
2019-03-10T23:48:10.077Z,1.33
2019-03-10T23:50:40.855Z,1.23
2019-03-10T23:53:11.562Z,1.40
2019-03-10T23:55:42.213Z,1.37
2019-03-10T23:58:13.246Z,1.87
